CST,Max TemperatureF,Mean TemperatureF,Min TemperatureF,Max Dew PointF,MeanDew PointF,Min DewpointF,Max Humidity, Mean Humidity, Min Humidity, Max Sea Level PressureIn, Mean Sea Level PressureIn, Min Sea Level PressureIn, Max VisibilityMiles, Mean VisibilityMiles, Min VisibilityMiles, Max Wind SpeedMPH, Mean Wind SpeedMPH, Max Gust SpeedMPH,PrecipitationIn, CloudCover, Events, WindDirDegrees
2013-1-1,35,29,23,36,30,21,100,98,93,30.24,30.13,30.03,6,2,0,10,4,,0.00,6,Fog-Rain-Snow,354
2013-1-2,33,26,19,25,20,18,100,81,56,30.25,30.23,30.17,10,7,2,7,1,,0.00,3,,253
2013-1-3,41,32,23,27,23,21,100,77,49,30.41,30.34,30.23,10,8,4,8,2,,0.00,2,,265
2013-1-4,44,35,26,27,22,19,93,64,37,30.46,30.38,30.31,10,10,10,9,1,,0.00,2,,235
2013-1-5,41,36,32,32,26,19,87,68,52,30.32,30.25,30.18,10,10,10,9,2,17,0.00,4,,226
2013-1-6,44,35,26,32,25,19,93,73,37,30.36,30.29,30.20,10,10,10,14,6,22,0.00,0,,280
2013-1-7,50,38,26,27,21,18,80,60,35,30.36,30.26,30.14,10,10,10,16,4,21,0.00,1,,149
2013-1-8,55,42,30,45,32,23,100,71,43,30.22,30.14,30.07,10,10,7,13,6,,0.00,4,Rain,150
2013-1-9,53,47,41,45,41,36,100,80,58,30.38,30.29,30.23,10,9,5,14,4,17,0.00,8,Rain,79
2013-1-10,50,46,41,50,45,34,100,97,58,30.28,30.01,29.84,10,5,0,22,12,25,0.00,7,Fog-Rain,129
2013-1-11,66,54,42,46,44,39,93,73,37,29.90,29.85,29.79,10,10,10,14,7,23,0.00,4,,186
2013-1-12,57,44,32,48,39,30,100,84,50,29.93,29.88,29.80,10,8,2,21,8,29,0.04,6,Rain-Snow-Thunderstorm,321
2013-1-13,32,24,15,30,20,14,100,87,69,30.34,30.15,29.92,10,10,7,15,10,20,0.00,4,,318
2013-1-14,28,20,12,14,12,9,93,74,47,30.46,30.35,30.31,10,10,10,10,2,,0.00,1,,46
2013-1-15,28,22,15,19,16,12,86,77,64,30.32,30.23,30.14,10,10,5,7,2,,0.00,4,Snow,9
2013-1-16,41,29,17,19,17,14,93,66,36,30.18,30.14,30.08,10,9,5,9,1,,0.00,0,,250
2013-1-17,44,37,30,30,23,16,87,64,46,30.48,30.33,30.16,10,10,5,16,7,,0.00,1,,307
2013-1-18,57,42,28,27,22,14,80,55,18,30.51,30.37,30.20,10,10,10,14,4,21,0.00,0,,184
2013-1-19,62,52,41,32,28,19,53,44,30,30.21,30.17,30.08,10,10,10,18,8,25,0.00,0,,234
2013-1-20,53,42,32,32,25,18,75,56,33,30.29,30.22,30.15,10,10,10,12,6,,0.00,2,,4
2013-1-21,35,28,21,16,13,9,74,59,35,30.38,30.32,30.26,10,10,10,14,8,16,0.00,0,,352
2013-1-22,32,24,17,18,15,10,80,67,48,30.34,30.29,30.23,10,10,10,12,3,,0.00,2,,114
2013-1-23,59,41,23,37,28,18,86,70,43,30.28,30.22,30.05,10,10,8,10,4,,0.00,3,,62
2013-1-24,39,32,26,28,16,10,69,52,41,30.39,30.26,30.16,10,10,10,16,8,25,0.00,8,,83
2013-1-25,46,35,24,30,26,19,100,78,50,30.26,30.18,30.11,10,6,1,10,4,,0.00,5,,274
2013-1-26,55,42,30,27,24,19,80,52,26,30.29,30.23,30.18,10,10,10,14,4,18,0.00,4,,121
2013-1-27,57,50,42,54,42,27,100,79,49,30.17,30.06,29.96,10,9,3,16,11,21,0.00,7,Rain,144
2013-1-28,73,65,57,59,57,55,94,78,57,30.01,29.94,29.88,10,10,10,23,11,34,0.00,6,,186
2013-1-29,68,59,50,61,55,48,100,85,73,29.87,29.68,29.49,10,7,0,24,11,34,0.33,7,Rain-Thunderstorm,169
2013-1-30,50,37,24,48,30,18,100,80,64,30.03,29.74,29.47,10,9,4,21,9,36,0.00,7,Rain,271
2013-1-31,44,30,17,25,16,1,86,66,43,30.40,30.17,29.99,10,10,2,20,6,25,0.00,2,Snow,298